createdAt,value
2019-02-22T00:01:58.785Z,95.10
2019-02-22T00:04:25.263Z,95.50
2019-02-22T00:06:51.431Z,95.00
2019-02-22T00:09:17.592Z,95.10
2019-02-22T00:11:43.737Z,95.20
2019-02-22T00:14:10.173Z,95.10
2019-02-22T00:16:36.624Z,95.20
2019-02-22T00:19:02.780Z,95.20
2019-02-22T00:21:28.928Z,94.90
2019-02-22T00:23:55.084Z,95.10
2019-02-22T00:26:21.219Z,95.00
2019-02-22T00:28:47.648Z,95.20
2019-02-22T00:31:13.801Z,95.30
2019-02-22T00:33:39.963Z,95.40
2019-02-22T00:36:06.115Z,95.30
2019-02-22T00:38:32.498Z,95.30
2019-02-22T00:40:58.660Z,94.80
2019-02-22T00:43:24.957Z,95.20
2019-02-22T00:45:51.216Z,95.20
2019-02-22T00:48:17.356Z,95.30
2019-02-22T00:50:43.519Z,94.80
2019-02-22T00:53:09.659Z,94.40
2019-02-22T00:55:35.856Z,95.00
2019-02-22T00:58:02.070Z,95.20
2019-02-22T01:00:28.227Z,95.20
2019-02-22T01:02:54.644Z,95.40
2019-02-22T01:05:20.807Z,95.50
2019-02-22T01:07:46.979Z,95.60
2019-02-22T01:10:13.127Z,95.60
2019-02-22T01:12:39.474Z,95.60
2019-02-22T01:15:05.887Z,95.80
2019-02-22T01:17:32.155Z,95.70
2019-02-22T01:19:58.302Z,95.80
2019-02-22T01:22:24.456Z,95.50
2019-02-22T01:24:50.600Z,95.70
2019-02-22T01:27:16.762Z,95.80
2019-02-22T01:29:42.900Z,95.90
2019-02-22T01:32:09.079Z,95.90
2019-02-22T01:34:35.234Z,95.90
2019-02-22T01:37:01.407Z,96.00
2019-02-22T01:39:27.881Z,95.90
2019-02-22T01:41:54.033Z,96.00
2019-02-22T01:44:21.284Z,96.10
2019-02-22T01:46:47.783Z,96.10
2019-02-22T01:49:14.027Z,96.10
2019-02-22T01:51:40.183Z,96.10
2019-02-22T01:54:06.336Z,96.10
2019-02-22T01:56:32.493Z,96.20
2019-02-22T01:58:58.647Z,96.10
2019-02-22T02:01:25.055Z,96.00
2019-02-22T02:03:51.215Z,95.80
2019-02-22T02:06:17.407Z,95.90
2019-02-22T02:08:43.567Z,95.90
2019-02-22T02:11:09.767Z,96.00
2019-02-22T02:13:36.200Z,96.00
2019-02-22T02:16:02.345Z,96.00
2019-02-22T02:18:29.519Z,96.10
2019-02-22T02:20:55.720Z,96.20
2019-02-22T02:23:21.937Z,96.10
2019-02-22T02:25:48.076Z,96.20
2019-02-22T02:28:14.223Z,96.20
2019-02-22T02:30:40.368Z,96.20
2019-02-22T02:33:06.528Z,96.10
2019-02-22T02:35:32.674Z,96.00
2019-02-22T02:37:58.847Z,96.20
2019-02-22T02:40:24.992Z,96.20
2019-02-22T02:42:51.150Z,96.10
2019-02-22T02:45:17.288Z,95.80
2019-02-22T02:47:43.462Z,95.80
2019-02-22T02:50:15.029Z,96.10
2019-02-22T02:52:41.190Z,96.20
2019-02-22T02:55:30.057Z,96.30
2019-02-22T02:57:56.212Z,96.30
2019-02-22T03:00:22.343Z,96.10
2019-02-22T03:02:48.744Z,96.00
2019-02-22T03:05:14.905Z,96.10
2019-02-22T03:07:42.263Z,96.00
2019-02-22T03:10:08.423Z,96.10
2019-02-22T03:12:34.561Z,96.20
2019-02-22T03:15:00.777Z,96.10
2019-02-22T03:17:26.959Z,96.20
2019-02-22T03:19:53.442Z,96.00
2019-02-22T03:22:19.584Z,96.00
2019-02-22T03:24:45.743Z,95.70
2019-02-22T03:27:11.883Z,95.80
2019-02-22T03:29:38.055Z,96.00
2019-02-22T03:32:04.192Z,95.90
2019-02-22T03:34:30.621Z,96.00
2019-02-22T03:36:56.752Z,96.20
2019-02-22T03:39:22.924Z,96.10
2019-02-22T03:41:49.055Z,96.00
2019-02-22T03:44:15.239Z,96.20
2019-02-22T03:46:41.400Z,96.30
2019-02-22T03:49:07.553Z,96.30
2019-02-22T03:51:33.715Z,96.20
2019-02-22T03:54:00.150Z,96.40
2019-02-22T03:56:26.286Z,96.50
2019-02-22T03:58:52.790Z,96.30
2019-02-22T04:01:19.036Z,96.10
2019-02-22T04:03:45.178Z,95.90
2019-02-22T04:06:11.583Z,96.00
2019-02-22T04:08:37.742Z,96.10
2019-02-22T04:11:03.886Z,95.70
2019-02-22T04:13:30.027Z,95.90
2019-02-22T04:15:56.172Z,95.80
2019-02-22T04:18:22.322Z,95.80
2019-02-22T04:20:48.763Z,95.50
2019-02-22T04:23:14.908Z,95.20
2019-02-22T04:25:41.083Z,95.40
2019-02-22T04:28:07.282Z,95.80
2019-02-22T04:30:33.757Z,95.60
2019-02-22T04:32:59.912Z,96.00
2019-02-22T04:35:26.302Z,96.10
2019-02-22T04:37:52.479Z,94.90
2019-02-22T04:40:18.616Z,94.50
2019-02-22T04:42:44.814Z,95.10
2019-02-22T04:45:11.188Z,94.60
2019-02-22T04:47:37.347Z,95.10
2019-02-22T04:50:04.888Z,95.30
2019-02-22T04:52:31.048Z,95.60
2019-02-22T04:54:57.439Z,95.90
2019-02-22T04:57:23.684Z,95.80
2019-02-22T04:59:49.835Z,95.70
2019-02-22T05:02:16.242Z,95.50
2019-02-22T05:04:42.386Z,95.50
2019-02-22T05:07:08.526Z,94.10
2019-02-22T05:09:35.670Z,93.90
2019-02-22T05:12:10.858Z,93.70
2019-02-22T05:14:30.968Z,93.80
2019-02-22T05:16:57.117Z,93.80
2019-02-22T05:19:23.501Z,94.00
2019-02-22T05:21:49.635Z,94.80
2019-02-22T05:24:16.019Z,94.60
2019-02-22T05:26:42.175Z,95.00
2019-02-22T05:29:08.333Z,94.90
2019-02-22T05:31:34.461Z,95.10
2019-02-22T05:34:00.610Z,95.30
2019-02-22T05:36:26.753Z,95.60
2019-02-22T05:38:52.897Z,95.60
2019-02-22T05:41:19.031Z,95.60
2019-02-22T05:43:45.417Z,95.60
2019-02-22T05:46:11.562Z,95.70
2019-02-22T05:48:38.884Z,95.30
2019-02-22T05:51:05.155Z,95.00
2019-02-22T05:53:31.550Z,95.70
2019-02-22T05:55:57.697Z,95.90
2019-02-22T05:58:23.845Z,96.20
2019-02-22T06:00:49.980Z,96.20
2019-02-22T06:03:16.369Z,96.20
2019-02-22T06:05:42.763Z,96.30
2019-02-22T06:08:09.221Z,96.20
2019-02-22T06:10:35.737Z,95.90
2019-02-22T06:13:01.963Z,95.90
2019-02-22T06:15:28.103Z,96.10
2019-02-22T06:17:54.388Z,96.20
2019-02-22T06:20:20.918Z,95.60
2019-02-22T06:22:47.068Z,95.80
2019-02-22T06:25:13.212Z,94.70
2019-02-22T06:27:39.364Z,94.20
2019-02-22T06:30:08.118Z,94.10
2019-02-22T06:32:34.511Z,94.80
2019-02-22T06:35:00.659Z,95.60
2019-02-22T06:37:26.808Z,95.70
2019-02-22T06:39:52.963Z,95.90
2019-02-22T06:42:19.108Z,95.30
2019-02-22T06:44:45.271Z,95.50
2019-02-22T06:47:11.422Z,95.90
2019-02-22T06:49:37.583Z,96.00
2019-02-22T06:52:03.735Z,96.00
2019-02-22T06:54:32.075Z,96.00
2019-02-22T06:56:58.222Z,96.00
2019-02-22T06:59:24.383Z,95.90
2019-02-22T07:01:50.526Z,95.80
2019-02-22T07:04:17.012Z,95.00
2019-02-22T07:06:43.163Z,95.50
2019-02-22T07:09:09.311Z,95.60
2019-02-22T07:11:43.368Z,95.70
2019-02-22T07:14:09.522Z,95.70
2019-02-22T07:16:35.683Z,94.20
2019-02-22T07:19:01.840Z,93.80
2019-02-22T07:21:38.858Z,93.70
2019-02-22T07:23:56.288Z,93.60
2019-02-22T07:26:22.431Z,94.40
2019-02-22T07:28:48.597Z,94.30
2019-02-22T07:31:14.743Z,94.60
2019-02-22T07:33:40.894Z,94.20
2019-02-22T07:36:07.069Z,95.00
2019-02-22T07:38:33.211Z,94.30
2019-02-22T07:40:59.587Z,94.20
2019-02-22T07:43:25.730Z,94.00
2019-02-22T07:45:51.882Z,93.90
2019-02-22T07:48:18.031Z,94.10
2019-02-22T07:50:44.189Z,94.30
2019-02-22T07:53:10.326Z,93.60
2019-02-22T07:55:36.479Z,93.50
2019-02-22T07:58:02.628Z,93.40
2019-02-22T08:00:28.783Z,93.40
2019-02-22T08:02:54.927Z,93.40
2019-02-22T08:05:21.095Z,93.40
2019-02-22T08:07:47.243Z,93.40
2019-02-22T08:10:13.430Z,93.80
2019-02-22T08:12:39.583Z,93.30
2019-02-22T08:15:08.286Z,93.20
2019-02-22T08:17:34.770Z,93.80
2019-02-22T08:20:01.270Z,94.20
2019-02-22T08:22:27.619Z,94.50
2019-02-22T08:24:53.815Z,94.80
2019-02-22T08:27:19.947Z,94.40
2019-02-22T08:29:46.106Z,94.20
2019-02-22T08:32:12.566Z,93.60
2019-02-22T08:34:38.736Z,94.00
2019-02-22T08:37:05.000Z,93.80
2019-02-22T08:39:31.188Z,93.80
2019-02-22T08:41:57.636Z,93.90
2019-02-22T08:44:23.780Z,93.40
2019-02-22T08:46:50.187Z,93.30
2019-02-22T08:49:16.323Z,93.20
2019-02-22T08:51:42.476Z,93.20
2019-02-22T08:54:08.621Z,93.20
2019-02-22T08:56:34.800Z,93.50
2019-02-22T08:59:01.328Z,93.40
2019-02-22T09:01:27.494Z,93.30
2019-02-22T09:03:53.698Z,93.30
2019-02-22T09:06:19.868Z,93.30
2019-02-22T09:08:46.344Z,93.40
2019-02-22T09:11:12.773Z,93.40
2019-02-22T09:13:43.629Z,93.80
2019-02-22T09:16:07.280Z,94.30
2019-02-22T09:18:34.530Z,93.70
2019-02-22T09:21:00.739Z,93.60
2019-02-22T09:23:26.905Z,93.50
2019-02-22T09:25:53.158Z,93.40
2019-02-22T09:28:19.561Z,93.60
2019-02-22T09:30:45.815Z,93.80
2019-02-22T09:33:11.965Z,94.40
2019-02-22T09:35:38.477Z,94.70
2019-02-22T09:38:05.329Z,94.10
2019-02-22T09:40:31.477Z,94.40
2019-02-22T09:42:57.623Z,94.30
2019-02-22T09:45:24.590Z,94.60
2019-02-22T09:47:51.069Z,95.30
2019-02-22T09:50:17.244Z,95.00
2019-02-22T09:52:43.410Z,94.70
2019-02-22T09:55:11.264Z,94.80
2019-02-22T09:57:37.670Z,93.70
2019-02-22T10:00:10.491Z,93.20
2019-02-22T10:02:36.659Z,93.50
2019-02-22T10:05:05.022Z,93.10
2019-02-22T10:07:31.198Z,93.40
2019-02-22T10:09:58.347Z,93.20
2019-02-22T10:12:24.537Z,93.00
2019-02-22T10:14:50.690Z,93.00
2019-02-22T10:17:16.851Z,93.50
2019-02-22T10:19:43.023Z,93.60
2019-02-22T10:22:09.282Z,93.50
2019-02-22T10:24:35.431Z,93.30
2019-02-22T10:27:01.936Z,93.40
2019-02-22T10:29:29.281Z,93.50
2019-02-22T10:31:55.440Z,93.20
2019-02-22T10:34:21.577Z,92.70
2019-02-22T10:36:48.086Z,92.60
2019-02-22T10:39:14.296Z,92.30
2019-02-22T10:41:40.438Z,92.50
2019-02-22T10:44:17.072Z,92.90
2019-02-22T10:46:34.871Z,92.60
2019-02-22T10:49:01.018Z,93.00
2019-02-22T10:51:27.172Z,92.50
2019-02-22T10:53:53.623Z,92.20
2019-02-22T10:56:20.014Z,92.40
2019-02-22T10:58:46.147Z,92.30
2019-02-22T11:01:12.314Z,92.10
2019-02-22T11:03:38.467Z,92.40
2019-02-22T11:06:04.636Z,92.70
2019-02-22T11:08:30.801Z,92.70
2019-02-22T11:10:56.959Z,92.50
2019-02-22T11:13:23.112Z,92.90
2019-02-22T11:15:50.006Z,92.90
2019-02-22T11:18:16.140Z,92.80
2019-02-22T11:20:42.296Z,93.00
2019-02-22T11:23:08.778Z,92.80
2019-02-22T11:25:34.939Z,92.90
2019-02-22T11:28:02.088Z,92.90
2019-02-22T11:30:28.253Z,92.70
2019-02-22T11:32:54.412Z,92.30
2019-02-22T11:35:20.567Z,92.30
2019-02-22T11:37:47.698Z,92.70
2019-02-22T11:40:13.879Z,92.00
2019-02-22T11:42:40.357Z,92.00
2019-02-22T11:45:08.204Z,91.70
2019-02-22T11:47:34.347Z,91.10
2019-02-22T11:50:00.500Z,91.30
2019-02-22T11:52:26.647Z,91.10
2019-02-22T11:54:52.796Z,91.40
2019-02-22T11:57:20.264Z,90.20
2019-02-22T11:59:46.504Z,90.50
2019-02-22T12:02:12.671Z,90.10
2019-02-22T12:04:38.832Z,90.20
2019-02-22T12:07:05.019Z,89.50
2019-02-22T12:09:31.170Z,88.00
2019-02-22T12:11:57.339Z,88.70
2019-02-22T12:14:23.506Z,89.10
2019-02-22T12:16:49.675Z,88.50
2019-02-22T12:19:16.130Z,87.70
2019-02-22T12:21:42.311Z,85.30
2019-02-22T12:24:08.493Z,84.50
2019-02-22T12:26:34.639Z,85.00
2019-02-22T12:29:00.791Z,83.70
2019-02-22T12:31:27.022Z,83.80
2019-02-22T12:33:53.289Z,82.90
2019-02-22T12:36:19.838Z,80.90
2019-02-22T12:38:45.989Z,79.80
2019-02-22T12:41:12.139Z,78.50
2019-02-22T12:43:38.317Z,78.40
2019-02-22T12:46:04.477Z,77.70
2019-02-22T12:48:30.886Z,77.10
2019-02-22T12:50:57.071Z,77.10
2019-02-22T12:53:23.235Z,76.90
2019-02-22T12:55:49.388Z,76.90
2019-02-22T12:58:15.546Z,75.90
2019-02-22T13:00:41.700Z,75.90
2019-02-22T13:03:07.855Z,76.70
2019-02-22T13:05:34.002Z,76.50
2019-02-22T13:08:00.167Z,76.00
2019-02-22T13:10:26.324Z,75.00
2019-02-22T13:12:52.747Z,73.90
2019-02-22T13:15:18.913Z,75.10
2019-02-22T13:17:45.067Z,73.00
2019-02-22T13:20:11.233Z,75.80
2019-02-22T13:22:37.383Z,74.50
2019-02-22T13:25:07.178Z,73.20
2019-02-22T13:27:33.351Z,73.20
2019-02-22T13:29:59.538Z,72.70
2019-02-22T13:32:25.683Z,71.90
2019-02-22T13:34:51.915Z,71.10
2019-02-22T13:37:18.070Z,71.60
2019-02-22T13:39:44.247Z,70.90
2019-02-22T13:42:10.402Z,70.30
2019-02-22T13:44:36.570Z,71.00
2019-02-22T13:47:02.730Z,70.60
2019-02-22T13:49:28.877Z,70.00
2019-02-22T13:51:55.401Z,69.30
2019-02-22T13:54:21.597Z,70.50
2019-02-22T13:56:48.184Z,69.00
2019-02-22T13:59:14.403Z,69.50
2019-02-22T14:01:40.563Z,69.80
2019-02-22T14:04:06.739Z,69.40
2019-02-22T14:06:32.884Z,68.00
2019-02-22T14:08:59.048Z,68.40
2019-02-22T14:11:25.238Z,68.10
2019-02-22T14:13:51.394Z,69.00
2019-02-22T14:16:17.627Z,68.20
2019-02-22T14:18:43.787Z,68.30
2019-02-22T14:21:09.943Z,68.00
2019-02-22T14:23:36.093Z,67.30
2019-02-22T14:26:02.579Z,66.70
2019-02-22T14:28:28.723Z,67.50
2019-02-22T14:30:54.877Z,67.50
2019-02-22T14:33:21.025Z,66.10
2019-02-22T14:35:47.190Z,66.30
2019-02-22T14:38:13.632Z,66.70
2019-02-22T14:40:39.833Z,66.20
2019-02-22T14:43:16.198Z,66.00
2019-02-22T14:45:34.040Z,66.20
2019-02-22T14:48:00.223Z,65.90
2019-02-22T14:50:26.699Z,66.20
2019-02-22T14:52:52.859Z,66.00
2019-02-22T14:55:18.996Z,66.20
2019-02-22T14:57:45.493Z,66.70
2019-02-22T15:00:14.899Z,67.50
2019-02-22T15:02:41.288Z,68.30
2019-02-22T15:05:09.229Z,69.00
2019-02-22T15:07:35.506Z,69.30
2019-02-22T15:10:02.151Z,69.90
2019-02-22T15:12:28.290Z,69.80
2019-02-22T15:14:54.707Z,70.20
2019-02-22T15:17:23.004Z,69.90
2019-02-22T15:19:49.151Z,70.30
2019-02-22T15:22:15.292Z,70.00
2019-02-22T15:24:41.437Z,69.90
2019-02-22T15:27:07.585Z,69.70
2019-02-22T15:29:33.726Z,69.60
2019-02-22T15:32:00.887Z,69.20
2019-02-22T15:34:27.045Z,69.70
2019-02-22T15:36:54.220Z,69.50
2019-02-22T15:39:20.452Z,69.80
2019-02-22T15:41:47.096Z,68.40
2019-02-22T15:44:13.286Z,68.10
2019-02-22T15:46:39.448Z,68.40
2019-02-22T15:49:05.945Z,68.70
2019-02-22T15:51:32.160Z,68.50
2019-02-22T15:53:58.639Z,68.40
2019-02-22T15:56:26.050Z,68.20
2019-02-22T15:58:52.211Z,68.10
2019-02-22T16:01:18.356Z,68.00
2019-02-22T16:04:01.383Z,67.90
2019-02-22T16:06:27.528Z,68.10
2019-02-22T16:08:53.670Z,68.50
2019-02-22T16:11:19.916Z,67.90
2019-02-22T16:13:46.065Z,68.30
2019-02-22T16:16:22.727Z,68.30
2019-02-22T16:18:40.597Z,68.10
2019-02-22T16:21:06.755Z,68.40
2019-02-22T16:23:33.144Z,68.80
2019-02-22T16:25:59.294Z,69.30
2019-02-22T16:28:25.479Z,69.20
2019-02-22T16:30:51.638Z,69.10
2019-02-22T16:33:18.886Z,68.40
2019-02-22T16:35:45.344Z,68.80
2019-02-22T16:38:11.500Z,68.60
2019-02-22T16:40:37.639Z,69.40
2019-02-22T16:43:04.164Z,69.00
2019-02-22T16:45:30.305Z,69.20
2019-02-22T16:47:56.456Z,69.50
2019-02-22T16:50:22.613Z,69.70
2019-02-22T16:52:48.773Z,69.80
2019-02-22T16:55:15.491Z,69.80
2019-02-22T16:57:41.643Z,70.20
2019-02-22T17:00:10.247Z,70.50
2019-02-22T17:02:36.790Z,70.60
2019-02-22T17:05:05.063Z,71.00
2019-02-22T17:07:31.618Z,71.50
2019-02-22T17:09:57.797Z,71.60
2019-02-22T17:12:23.951Z,71.70
2019-02-22T17:14:50.118Z,71.90
2019-02-22T17:17:16.486Z,72.20
2019-02-22T17:19:42.656Z,73.60
2019-02-22T17:22:09.730Z,72.50
2019-02-22T17:24:36.377Z,72.70
2019-02-22T17:27:02.527Z,72.80
2019-02-22T17:29:28.687Z,72.70
2019-02-22T17:31:54.830Z,72.70
2019-02-22T17:34:20.987Z,73.00
2019-02-22T17:36:47.435Z,73.00
2019-02-22T17:39:13.844Z,73.40
2019-02-22T17:41:42.668Z,73.50
2019-02-22T17:44:08.354Z,73.30
2019-02-22T17:46:35.909Z,73.30
2019-02-22T17:49:02.065Z,73.40
2019-02-22T17:51:28.213Z,73.60
2019-02-22T17:53:54.478Z,73.50
2019-02-22T17:56:20.927Z,73.40
2019-02-22T17:58:47.312Z,73.20
2019-02-22T18:01:13.469Z,73.00
2019-02-22T18:03:39.615Z,72.80
2019-02-22T18:06:06.055Z,72.80
2019-02-22T18:08:32.197Z,72.70
2019-02-22T18:10:58.352Z,72.30
2019-02-22T18:13:24.832Z,72.20
2019-02-22T18:15:50.987Z,72.10
2019-02-22T18:18:17.130Z,72.30
2019-02-22T18:20:43.293Z,71.70
2019-02-22T18:23:09.439Z,71.70
2019-02-22T18:25:35.600Z,71.30
2019-02-22T18:28:01.856Z,72.10
2019-02-22T18:30:28.115Z,71.90
2019-02-22T18:32:54.575Z,72.20
2019-02-22T18:35:20.868Z,73.20
2019-02-22T18:37:47.335Z,72.20
2019-02-22T18:40:17.309Z,72.40
2019-02-22T18:42:43.467Z,72.50
2019-02-22T18:45:09.829Z,72.50
2019-02-22T18:47:35.990Z,72.70
2019-02-22T18:50:06.060Z,72.80
2019-02-22T18:52:32.458Z,72.50
2019-02-22T18:54:58.599Z,72.80
2019-02-22T18:57:24.758Z,72.80
2019-02-22T18:59:50.900Z,73.10
2019-02-22T19:02:17.064Z,73.10
2019-02-22T19:04:43.234Z,73.40
2019-02-22T19:07:09.391Z,73.50
2019-02-22T19:09:35.531Z,73.50
2019-02-22T19:12:01.686Z,73.80
2019-02-22T19:14:28.123Z,74.00
2019-02-22T19:16:55.382Z,74.20
2019-02-22T19:19:21.521Z,74.10
2019-02-22T19:21:48.101Z,74.40
2019-02-22T19:24:14.366Z,74.40
2019-02-22T19:26:40.533Z,74.60
2019-02-22T19:29:06.676Z,74.70
2019-02-22T19:31:32.834Z,74.50
2019-02-22T19:33:59.087Z,75.50
2019-02-22T19:36:25.232Z,76.30
2019-02-22T19:38:51.393Z,76.80
2019-02-22T19:41:17.544Z,76.00
2019-02-22T19:43:43.992Z,76.80
2019-02-22T19:46:10.134Z,76.80
2019-02-22T19:48:36.292Z,76.50
2019-02-22T19:51:33.649Z,76.40
2019-02-22T19:53:59.802Z,77.80
2019-02-22T19:56:25.981Z,78.50
2019-02-22T19:58:52.183Z,79.10
2019-02-22T20:01:18.339Z,79.70
2019-02-22T20:03:44.488Z,80.20
2019-02-22T20:06:10.972Z,81.40
2019-02-22T20:08:37.155Z,82.50
2019-02-22T20:11:04.401Z,82.80
2019-02-22T20:13:30.652Z,83.00
2019-02-22T20:15:56.823Z,83.90
2019-02-22T20:18:22.986Z,84.30
2019-02-22T20:20:49.183Z,84.70
2019-02-22T20:23:15.522Z,85.10
2019-02-22T20:25:41.675Z,86.50
2019-02-22T20:28:08.127Z,86.70
2019-02-22T20:30:35.416Z,86.00
2019-02-22T20:33:01.582Z,86.10
2019-02-22T20:35:28.450Z,86.30
2019-02-22T20:37:54.801Z,86.10
2019-02-22T20:40:21.210Z,86.60
2019-02-22T20:42:47.756Z,87.30
2019-02-22T20:45:14.036Z,87.10
2019-02-22T20:47:40.412Z,88.10
2019-02-22T20:50:10.673Z,87.70
2019-02-22T20:52:36.927Z,88.00
2019-02-22T20:55:05.002Z,87.50
2019-02-22T20:57:31.406Z,88.50
2019-02-22T20:59:57.571Z,88.50
2019-02-22T21:02:23.743Z,88.60
2019-02-22T21:04:50.219Z,89.00
2019-02-22T21:07:16.631Z,88.40
2019-02-22T21:09:42.837Z,88.70
2019-02-22T21:12:09.087Z,88.80
2019-02-22T21:14:35.239Z,89.10
2019-02-22T21:17:01.427Z,89.00
2019-02-22T21:19:27.580Z,88.50
2019-02-22T21:21:53.728Z,89.00
2019-02-22T21:24:19.877Z,88.70
2019-02-22T21:26:46.034Z,89.10
2019-02-22T21:29:12.293Z,88.90
2019-02-22T21:31:38.704Z,88.50
2019-02-22T21:34:05.138Z,88.50
2019-02-22T21:36:31.290Z,88.90
2019-02-22T21:38:57.442Z,89.10
2019-02-22T21:41:23.667Z,89.20
2019-02-22T21:43:50.168Z,88.80
2019-02-22T21:46:16.548Z,89.10
2019-02-22T21:48:43.120Z,89.10
2019-02-22T21:51:09.315Z,89.10
2019-02-22T21:53:35.465Z,89.30
2019-02-22T21:56:01.618Z,89.50
2019-02-22T21:58:27.864Z,90.20
2019-02-22T22:00:54.016Z,89.30
2019-02-22T22:03:20.164Z,89.00
2019-02-22T22:05:46.334Z,89.20
2019-02-22T22:08:13.479Z,88.10
2019-02-22T22:10:39.891Z,88.50
2019-02-22T22:13:06.050Z,89.50
2019-02-22T22:15:32.206Z,89.30
2019-02-22T22:17:58.365Z,89.10
2019-02-22T22:20:24.523Z,89.10
2019-02-22T22:22:50.755Z,89.60
2019-02-22T22:25:16.949Z,89.60
2019-02-22T22:27:43.191Z,90.20
2019-02-22T22:30:13.613Z,89.30
2019-02-22T22:32:39.815Z,90.00
2019-02-22T22:35:08.616Z,90.00
2019-02-22T22:37:35.771Z,89.90
2019-02-22T22:40:02.332Z,90.00
2019-02-22T22:42:28.611Z,89.60
2019-02-22T22:44:54.749Z,90.00
2019-02-22T22:47:20.892Z,90.10
2019-02-22T22:49:47.034Z,90.30
2019-02-22T22:52:13.199Z,90.20
2019-02-22T22:54:39.366Z,90.10
2019-02-22T22:57:05.511Z,90.10
2019-02-22T22:59:31.695Z,90.20
2019-02-22T23:01:58.137Z,90.40
2019-02-22T23:04:24.488Z,90.30
2019-02-22T23:06:50.652Z,90.20
2019-02-22T23:09:18.404Z,90.20
2019-02-22T23:11:44.791Z,90.40
2019-02-22T23:14:10.948Z,90.30
2019-02-22T23:16:37.099Z,90.40
2019-02-22T23:19:04.250Z,90.10
2019-02-22T23:21:30.394Z,90.60
2019-02-22T23:23:56.794Z,90.70
2019-02-22T23:26:22.930Z,90.70
2019-02-22T23:28:49.070Z,90.70
2019-02-22T23:31:15.227Z,90.70
2019-02-22T23:33:42.709Z,90.70
2019-02-22T23:36:08.974Z,90.50
2019-02-22T23:38:35.131Z,90.80
2019-02-22T23:41:01.273Z,90.80
2019-02-22T23:43:27.411Z,91.00
2019-02-22T23:45:53.579Z,90.80
2019-02-22T23:48:19.729Z,90.90
2019-02-22T23:50:45.995Z,91.10
2019-02-22T23:53:12.133Z,91.00
2019-02-22T23:55:38.282Z,90.90
2019-02-22T23:58:04.419Z,91.10
